createdAt,value
2017-10-31T00:00:03.533Z,7.53
2017-10-31T00:00:44.148Z,7.51
2017-10-31T00:01:24.764Z,7.57
2017-10-31T00:02:05.416Z,7.48
2017-10-31T00:02:46.015Z,7.48
2017-10-31T00:03:26.609Z,7.51
2017-10-31T00:04:07.229Z,7.53
2017-10-31T00:04:47.917Z,7.43
2017-10-31T00:05:28.552Z,7.47
2017-10-31T00:06:09.146Z,7.42
2017-10-31T00:06:49.742Z,7.51
2017-10-31T00:07:30.348Z,7.51
2017-10-31T00:08:10.970Z,7.48
2017-10-31T00:08:51.557Z,7.5
2017-10-31T00:09:32.192Z,7.53
2017-10-31T00:10:12.822Z,7.51
2017-10-31T00:10:53.467Z,7.51
2017-10-31T00:11:34.101Z,7.5
2017-10-31T00:12:14.694Z,7.4
2017-10-31T00:12:55.314Z,7.45
2017-10-31T00:13:35.982Z,7.48
2017-10-31T00:14:16.647Z,7.48
2017-10-31T00:14:57.251Z,7.47
2017-10-31T00:15:37.842Z,7.35
2017-10-31T00:16:18.470Z,7.39
2017-10-31T00:16:59.136Z,7.43
2017-10-31T00:17:39.769Z,7.51
2017-10-31T00:18:20.393Z,7.4
2017-10-31T00:19:01.005Z,7.43
2017-10-31T00:19:41.679Z,7.4
2017-10-31T00:20:22.306Z,7.42
2017-10-31T00:21:02.915Z,7.45
2017-10-31T00:21:43.570Z,7.47
2017-10-31T00:22:24.217Z,7.42
2017-10-31T00:23:04.846Z,7.42
2017-10-31T00:23:45.494Z,7.43
2017-10-31T00:24:26.145Z,7.4
2017-10-31T00:25:06.758Z,7.45
2017-10-31T00:25:47.393Z,7.4
2017-10-31T00:26:28.022Z,7.36
2017-10-31T00:27:08.629Z,7.4
2017-10-31T00:27:49.275Z,7.39
2017-10-31T00:28:29.943Z,7.42
2017-10-31T00:29:10.537Z,7.42
2017-10-31T00:29:51.116Z,7.42
2017-10-31T00:30:31.858Z,7.42
2017-10-31T00:31:12.485Z,7.4
2017-10-31T00:31:53.099Z,7.43
2017-10-31T00:32:33.753Z,7.42
2017-10-31T00:33:14.431Z,7.43
2017-10-31T00:33:55.070Z,7.43
2017-10-31T00:34:35.667Z,7.4
2017-10-31T00:35:16.437Z,7.4
2017-10-31T00:35:56.993Z,7.42
2017-10-31T00:36:37.675Z,7.47
2017-10-31T00:37:18.325Z,7.47
2017-10-31T00:37:59.004Z,7.43
2017-10-31T00:38:39.588Z,7.45
2017-10-31T00:39:20.258Z,7.42
2017-10-31T00:40:00.885Z,7.43
2017-10-31T00:40:41.520Z,7.42
2017-10-31T00:41:22.147Z,7.47
2017-10-31T00:42:02.810Z,7.45
2017-10-31T00:42:43.433Z,7.4
2017-10-31T00:43:24.063Z,7.43
2017-10-31T00:44:04.697Z,7.42
2017-10-31T00:44:45.277Z,7.33
2017-10-31T00:45:25.927Z,7.38
2017-10-31T00:46:06.684Z,7.43
2017-10-31T00:46:47.283Z,7.38
2017-10-31T00:47:27.887Z,7.4
2017-10-31T00:48:08.539Z,7.33
2017-10-31T00:48:49.214Z,7.36
2017-10-31T00:49:29.901Z,7.42
2017-10-31T00:50:10.478Z,7.4
2017-10-31T00:50:51.101Z,7.38
2017-10-31T00:51:31.737Z,7.4
2017-10-31T00:52:12.366Z,7.48
2017-10-31T00:52:53.086Z,7.39
2017-10-31T00:53:33.747Z,7.39
2017-10-31T00:54:14.379Z,7.4
2017-10-31T00:54:55.100Z,7.47
2017-10-31T00:55:35.858Z,7.39
2017-10-31T00:56:16.543Z,7.42
2017-10-31T00:56:57.122Z,7.5
2017-10-31T00:57:37.760Z,7.4
2017-10-31T00:58:18.388Z,7.42
2017-10-31T00:58:59.045Z,7.48
2017-10-31T00:59:39.696Z,7.4
2017-10-31T01:00:20.291Z,7.39
2017-10-31T01:01:00.939Z,7.38
2017-10-31T01:01:41.566Z,7.38
2017-10-31T01:02:22.201Z,7.47
2017-10-31T01:03:02.800Z,7.42
2017-10-31T01:03:43.375Z,7.4
2017-10-31T01:04:23.989Z,7.43
2017-10-31T01:05:04.579Z,7.4
2017-10-31T01:05:45.221Z,7.38
2017-10-31T01:06:25.838Z,7.39
2017-10-31T01:07:06.428Z,7.47
2017-10-31T01:07:47.053Z,7.38
2017-10-31T01:08:27.780Z,7.42
2017-10-31T01:09:08.372Z,7.42
2017-10-31T01:09:49.018Z,7.39
2017-10-31T01:10:29.624Z,7.4
2017-10-31T01:11:10.236Z,7.4
2017-10-31T01:11:50.848Z,7.45
2017-10-31T01:12:31.518Z,7.42
2017-10-31T01:13:12.139Z,7.48
2017-10-31T01:13:52.764Z,7.43
2017-10-31T01:14:33.459Z,7.42
2017-10-31T01:15:14.032Z,7.43
2017-10-31T01:15:54.638Z,7.4
2017-10-31T01:16:35.260Z,7.47
2017-10-31T01:17:15.846Z,7.39
2017-10-31T01:17:56.415Z,7.5
2017-10-31T01:18:36.982Z,7.47
2017-10-31T01:19:17.620Z,7.48
2017-10-31T01:19:58.224Z,7.43
2017-10-31T01:20:38.826Z,7.45
2017-10-31T01:21:19.376Z,7.5
2017-10-31T01:21:59.985Z,7.39
2017-10-31T01:22:40.546Z,7.5
2017-10-31T01:23:21.116Z,7.43
2017-10-31T01:24:01.718Z,7.43
2017-10-31T01:24:42.279Z,7.43
2017-10-31T01:25:22.904Z,7.43
2017-10-31T01:26:03.444Z,7.43
2017-10-31T01:26:44.060Z,7.48
2017-10-31T01:27:24.654Z,7.48
2017-10-31T01:28:05.255Z,7.53
2017-10-31T01:28:45.859Z,7.43
2017-10-31T01:29:26.431Z,7.38
2017-10-31T01:30:07.026Z,7.51
2017-10-31T01:30:47.631Z,7.39
2017-10-31T01:31:28.234Z,7.4
2017-10-31T01:32:08.815Z,7.39
2017-10-31T01:32:49.408Z,7.47
2017-10-31T01:33:29.989Z,7.4
2017-10-31T01:34:10.601Z,7.45
2017-10-31T01:34:51.188Z,7.45
2017-10-31T01:35:31.789Z,7.51
2017-10-31T01:36:12.369Z,7.53
2017-10-31T01:36:52.963Z,7.45
2017-10-31T01:37:33.540Z,7.53
2017-10-31T01:38:14.159Z,7.48
2017-10-31T01:38:54.773Z,7.39
2017-10-31T01:39:35.367Z,7.54
2017-10-31T01:40:15.951Z,7.53
2017-10-31T01:40:56.536Z,7.43
2017-10-31T01:41:37.118Z,7.56
2017-10-31T01:42:17.703Z,7.53
2017-10-31T01:42:58.297Z,7.51
2017-10-31T01:43:38.876Z,7.53
2017-10-31T01:44:19.472Z,7.56
2017-10-31T01:45:00.040Z,7.51
2017-10-31T01:45:40.634Z,7.51
2017-10-31T01:46:21.216Z,7.54
2017-10-31T01:47:01.849Z,7.5
2017-10-31T01:47:42.423Z,7.54
2017-10-31T01:48:22.997Z,7.51
2017-10-31T01:49:03.586Z,7.51
2017-10-31T01:49:44.176Z,7.56
2017-10-31T01:50:24.792Z,7.56
2017-10-31T01:51:05.387Z,7.45
2017-10-31T01:51:45.996Z,7.51
2017-10-31T01:52:26.564Z,7.56
2017-10-31T01:53:07.151Z,7.54
2017-10-31T01:53:47.754Z,7.56
2017-10-31T01:54:28.344Z,7.56
2017-10-31T01:55:08.941Z,7.5
2017-10-31T01:55:49.531Z,7.48
2017-10-31T01:56:30.099Z,7.47
2017-10-31T01:57:10.712Z,7.51
2017-10-31T01:57:51.282Z,7.57
2017-10-31T01:58:31.861Z,7.5
2017-10-31T01:59:12.444Z,7.5
2017-10-31T01:59:53.019Z,7.51
2017-10-31T02:00:33.582Z,7.54
2017-10-31T02:01:14.160Z,7.47
2017-10-31T02:01:54.753Z,7.56
2017-10-31T02:02:35.372Z,7.56
2017-10-31T02:03:15.960Z,7.57
2017-10-31T02:03:56.555Z,7.56
2017-10-31T02:04:37.141Z,7.45
2017-10-31T02:05:17.753Z,7.54
2017-10-31T02:05:58.356Z,7.56
2017-10-31T02:06:38.940Z,7.54
2017-10-31T02:07:19.511Z,7.48
2017-10-31T02:08:00.097Z,7.48
2017-10-31T02:08:40.674Z,7.51
2017-10-31T02:09:21.280Z,7.54
2017-10-31T02:10:01.874Z,7.48
2017-10-31T02:10:42.459Z,7.54
2017-10-31T02:11:23.032Z,7.47
2017-10-31T02:12:03.622Z,7.56
2017-10-31T02:12:44.208Z,7.51
2017-10-31T02:13:24.867Z,7.57
2017-10-31T02:14:05.454Z,7.57
2017-10-31T02:14:46.039Z,7.47
2017-10-31T02:15:26.672Z,7.51
2017-10-31T02:16:07.267Z,7.43
2017-10-31T02:16:47.838Z,7.54
2017-10-31T02:17:28.409Z,7.54
2017-10-31T02:18:08.999Z,7.54
2017-10-31T02:18:49.587Z,7.56
2017-10-31T02:19:30.178Z,7.54
2017-10-31T02:20:10.752Z,7.56
2017-10-31T02:20:51.326Z,7.42
2017-10-31T02:21:31.933Z,7.57
2017-10-31T02:22:12.535Z,7.58
2017-10-31T02:22:53.111Z,7.54
2017-10-31T02:23:33.688Z,7.5
2017-10-31T02:24:14.278Z,7.58
2017-10-31T02:24:54.858Z,7.54
2017-10-31T02:25:35.451Z,7.51
2017-10-31T02:26:16.110Z,7.54
2017-10-31T02:26:56.594Z,7.54
2017-10-31T02:27:37.204Z,7.56
2017-10-31T02:28:17.814Z,7.48
2017-10-31T02:28:58.384Z,7.54
2017-10-31T02:29:38.971Z,7.56
2017-10-31T02:30:19.579Z,7.53
2017-10-31T02:31:00.163Z,7.56
2017-10-31T02:31:40.758Z,7.48
2017-10-31T02:32:21.391Z,7.56
2017-10-31T02:33:01.986Z,7.56
2017-10-31T02:33:42.552Z,7.5
2017-10-31T02:34:23.144Z,7.53
2017-10-31T02:35:03.770Z,7.47
2017-10-31T02:35:44.349Z,7.54
2017-10-31T02:36:24.921Z,7.57
2017-10-31T02:37:05.537Z,7.51
2017-10-31T02:37:46.125Z,7.58
2017-10-31T02:38:26.696Z,7.5
2017-10-31T02:39:07.285Z,7.54
2017-10-31T02:39:47.888Z,7.58
2017-10-31T02:40:28.535Z,7.61
2017-10-31T02:41:09.099Z,7.53
2017-10-31T02:41:49.726Z,7.54
2017-10-31T02:42:30.311Z,7.56
2017-10-31T02:43:10.893Z,7.51
2017-10-31T02:43:51.470Z,7.56
2017-10-31T02:44:32.037Z,7.57
2017-10-31T02:45:12.695Z,7.54
2017-10-31T02:45:53.269Z,7.54
2017-10-31T02:46:33.854Z,7.51
2017-10-31T02:47:14.436Z,7.57
2017-10-31T02:47:55.014Z,7.6
2017-10-31T02:48:35.630Z,7.57
2017-10-31T02:49:16.216Z,7.57
2017-10-31T02:49:56.837Z,7.66
2017-10-31T02:50:37.402Z,7.6
2017-10-31T02:51:17.998Z,7.67
2017-10-31T02:51:58.675Z,7.58
2017-10-31T02:52:39.242Z,7.66
2017-10-31T02:53:19.895Z,7.66
2017-10-31T02:54:00.527Z,7.63
2017-10-31T02:54:41.113Z,7.63
2017-10-31T02:55:21.690Z,7.57
2017-10-31T02:56:02.274Z,7.63
2017-10-31T02:56:42.877Z,7.6
2017-10-31T02:57:23.462Z,7.63
2017-10-31T02:58:04.096Z,7.67
2017-10-31T02:58:44.696Z,7.58
2017-10-31T02:59:25.279Z,7.56
2017-10-31T03:00:05.861Z,7.66
2017-10-31T03:00:46.451Z,7.66
2017-10-31T03:01:27.040Z,7.6
2017-10-31T03:02:07.620Z,7.58
2017-10-31T03:02:48.218Z,7.63
2017-10-31T03:03:28.845Z,7.63
2017-10-31T03:04:09.450Z,7.61
2017-10-31T03:04:50.043Z,7.58
2017-10-31T03:05:30.632Z,7.63
2017-10-31T03:06:11.224Z,7.61
2017-10-31T03:06:51.789Z,7.6
2017-10-31T03:07:32.368Z,7.6
2017-10-31T03:08:12.965Z,7.61
2017-10-31T03:08:53.546Z,7.56
2017-10-31T03:09:34.167Z,7.63
2017-10-31T03:10:14.740Z,7.69
2017-10-31T03:10:55.325Z,7.6
2017-10-31T03:11:35.907Z,7.63
2017-10-31T03:12:16.521Z,7.6
2017-10-31T03:12:57.074Z,7.57
2017-10-31T03:13:37.662Z,7.58
2017-10-31T03:14:18.233Z,7.66
2017-10-31T03:14:58.823Z,7.63
2017-10-31T03:15:39.398Z,7.61
2017-10-31T03:16:19.964Z,7.6
2017-10-31T03:17:00.564Z,7.6
2017-10-31T03:17:41.141Z,7.6
2017-10-31T03:18:21.736Z,7.66
2017-10-31T03:19:02.314Z,7.63
2017-10-31T03:19:42.901Z,7.63
2017-10-31T03:20:23.495Z,7.6
2017-10-31T03:21:04.078Z,7.63
2017-10-31T03:21:44.672Z,7.63
2017-10-31T03:22:25.254Z,7.61
2017-10-31T03:23:05.820Z,7.66
2017-10-31T03:23:46.409Z,7.58
2017-10-31T03:24:27.026Z,7.66
2017-10-31T03:25:07.616Z,7.6
2017-10-31T03:25:48.203Z,7.7
2017-10-31T03:26:28.784Z,7.69
2017-10-31T03:27:09.370Z,7.63
2017-10-31T03:27:49.938Z,7.61
2017-10-31T03:28:30.506Z,7.61
2017-10-31T03:29:11.088Z,7.57
2017-10-31T03:29:51.682Z,7.58
2017-10-31T03:30:32.252Z,7.69
2017-10-31T03:31:12.830Z,7.63
2017-10-31T03:31:53.437Z,7.61
2017-10-31T03:32:34.027Z,7.7
2017-10-31T03:33:14.627Z,7.7
2017-10-31T03:33:55.206Z,7.61
2017-10-31T03:34:35.780Z,7.67
2017-10-31T03:35:16.375Z,7.72
2017-10-31T03:35:56.932Z,7.67
2017-10-31T03:36:37.517Z,7.72
2017-10-31T03:37:18.103Z,7.76
2017-10-31T03:37:58.684Z,7.73
2017-10-31T03:38:39.326Z,7.73
2017-10-31T03:39:19.964Z,7.76
2017-10-31T03:40:00.570Z,7.7
2017-10-31T03:40:41.150Z,7.77
2017-10-31T03:41:21.759Z,7.76
2017-10-31T03:42:02.347Z,7.79
2017-10-31T03:42:42.925Z,7.77
2017-10-31T03:43:23.514Z,7.76
2017-10-31T03:44:04.278Z,7.75
2017-10-31T03:44:44.777Z,7.73
2017-10-31T03:45:25.347Z,7.75
2017-10-31T03:46:05.944Z,7.82
2017-10-31T03:46:46.522Z,7.73
2017-10-31T03:47:27.122Z,7.76
2017-10-31T03:48:07.695Z,7.76
2017-10-31T03:48:48.271Z,7.73
2017-10-31T03:49:28.865Z,7.77
2017-10-31T03:50:09.431Z,7.72
2017-10-31T03:50:50.035Z,7.76
2017-10-31T03:51:30.634Z,7.73
2017-10-31T03:52:11.221Z,7.75
2017-10-31T03:52:51.795Z,7.76
2017-10-31T03:53:32.362Z,7.69
2017-10-31T03:54:12.940Z,7.76
2017-10-31T03:54:53.513Z,7.75
2017-10-31T03:55:34.103Z,7.73
2017-10-31T03:56:14.669Z,7.69
2017-10-31T03:56:55.240Z,7.75
2017-10-31T03:57:35.811Z,7.75
2017-10-31T03:58:16.388Z,7.77
2017-10-31T03:58:56.969Z,7.72
2017-10-31T03:59:37.525Z,7.8
2017-10-31T04:00:18.142Z,7.82
2017-10-31T04:00:58.723Z,7.73
2017-10-31T04:01:39.350Z,7.73
2017-10-31T04:02:19.916Z,7.76
2017-10-31T04:03:00.513Z,7.76
2017-10-31T04:03:41.124Z,7.75
2017-10-31T04:04:21.707Z,7.73
2017-10-31T04:05:02.278Z,7.72
2017-10-31T04:05:42.852Z,7.75
2017-10-31T04:06:23.432Z,7.73
2017-10-31T04:07:04.020Z,7.8
2017-10-31T04:07:44.597Z,7.72
2017-10-31T04:08:25.187Z,7.69
2017-10-31T04:09:05.777Z,7.69
2017-10-31T04:09:46.379Z,7.73
2017-10-31T04:10:26.955Z,7.66
2017-10-31T04:11:07.532Z,7.73
2017-10-31T04:11:48.133Z,7.72
2017-10-31T04:12:28.706Z,7.75
2017-10-31T04:13:09.311Z,7.73
2017-10-31T04:13:49.902Z,7.75
2017-10-31T04:14:30.485Z,7.73
2017-10-31T04:15:11.046Z,7.7
2017-10-31T04:15:51.668Z,7.76
2017-10-31T04:16:32.228Z,7.63
2017-10-31T04:17:12.790Z,7.69
2017-10-31T04:17:53.379Z,7.69
2017-10-31T04:18:33.964Z,7.73
2017-10-31T04:19:14.553Z,7.67
2017-10-31T04:19:55.107Z,7.63
2017-10-31T04:20:35.778Z,7.7
2017-10-31T04:21:16.365Z,7.73
2017-10-31T04:21:56.931Z,7.67
2017-10-31T04:22:37.526Z,7.73
2017-10-31T04:23:18.132Z,7.73
2017-10-31T04:23:58.722Z,7.73
2017-10-31T04:24:39.337Z,7.73
2017-10-31T04:25:19.976Z,7.7
2017-10-31T04:26:00.588Z,7.72
2017-10-31T04:26:41.142Z,7.76
2017-10-31T04:27:21.743Z,7.8
2017-10-31T04:28:02.306Z,7.73
2017-10-31T04:28:42.907Z,7.66
2017-10-31T04:29:23.528Z,7.69
2017-10-31T04:30:04.105Z,7.72
2017-10-31T04:30:44.694Z,7.69
2017-10-31T04:31:25.292Z,7.63
2017-10-31T04:32:05.857Z,7.67
2017-10-31T04:32:46.481Z,7.7
2017-10-31T04:33:27.096Z,7.67
2017-10-31T04:34:07.689Z,7.67
2017-10-31T04:34:48.252Z,7.6
2017-10-31T04:35:28.825Z,7.63
2017-10-31T04:36:09.407Z,7.66
2017-10-31T04:36:49.990Z,7.63
2017-10-31T04:37:30.569Z,7.66
2017-10-31T04:38:11.151Z,7.69
2017-10-31T04:38:51.748Z,7.61
2017-10-31T04:39:32.328Z,7.66
2017-10-31T04:40:12.916Z,7.61
2017-10-31T04:40:53.499Z,7.63
2017-10-31T04:41:34.101Z,7.67
2017-10-31T04:42:14.723Z,7.67
2017-10-31T04:42:55.287Z,7.61
2017-10-31T04:43:35.907Z,7.63
2017-10-31T04:44:16.559Z,7.66
2017-10-31T04:44:57.141Z,7.61
2017-10-31T04:45:37.734Z,7.67
2017-10-31T04:46:18.321Z,7.66
2017-10-31T04:46:58.902Z,7.66
2017-10-31T04:47:39.533Z,7.61
2017-10-31T04:48:20.115Z,7.61
2017-10-31T04:49:00.729Z,7.63
2017-10-31T04:49:41.324Z,7.66
2017-10-31T04:50:21.949Z,7.63
2017-10-31T04:51:02.543Z,7.6
2017-10-31T04:51:43.147Z,7.61
2017-10-31T04:52:23.738Z,7.6
2017-10-31T04:53:04.348Z,7.6
2017-10-31T04:53:44.948Z,7.67
2017-10-31T04:54:25.516Z,7.6
2017-10-31T04:55:06.111Z,7.61
2017-10-31T04:55:46.716Z,7.6
2017-10-31T04:56:27.316Z,7.6
2017-10-31T04:57:07.901Z,7.7
2017-10-31T04:57:48.479Z,7.67
2017-10-31T04:58:29.059Z,7.61
2017-10-31T04:59:09.630Z,7.66
2017-10-31T04:59:50.197Z,7.58
2017-10-31T05:00:30.808Z,7.61
2017-10-31T05:01:11.406Z,7.72
2017-10-31T05:01:52.018Z,7.7
2017-10-31T05:02:32.601Z,7.72
2017-10-31T05:03:13.179Z,7.7
2017-10-31T05:03:53.752Z,7.75
2017-10-31T05:04:34.325Z,7.73
2017-10-31T05:05:14.916Z,7.75
2017-10-31T05:05:55.492Z,7.76
2017-10-31T05:06:36.067Z,7.73
2017-10-31T05:07:16.643Z,7.75
2017-10-31T05:07:57.211Z,7.73
2017-10-31T05:08:37.776Z,7.76
2017-10-31T05:09:18.409Z,7.75
2017-10-31T05:09:59.004Z,7.72
2017-10-31T05:10:39.595Z,7.73
2017-10-31T05:11:20.270Z,7.76
2017-10-31T05:12:00.842Z,7.76
2017-10-31T05:12:41.433Z,7.75
2017-10-31T05:13:22.029Z,7.79
2017-10-31T05:14:02.618Z,7.82
2017-10-31T05:14:43.208Z,7.7
2017-10-31T05:15:23.771Z,7.87
2017-10-31T05:16:04.352Z,7.79
2017-10-31T05:16:44.942Z,7.82
2017-10-31T05:17:25.557Z,7.76
2017-10-31T05:18:06.150Z,7.85
2017-10-31T05:18:46.743Z,7.85
2017-10-31T05:19:27.371Z,7.83
2017-10-31T05:20:07.974Z,7.82
2017-10-31T05:20:48.532Z,7.79
2017-10-31T05:21:29.145Z,7.77
2017-10-31T05:22:09.723Z,7.77
2017-10-31T05:22:50.334Z,7.82
2017-10-31T05:23:30.929Z,7.9
2017-10-31T05:24:11.553Z,7.82
2017-10-31T05:24:52.116Z,7.9
2017-10-31T05:25:32.685Z,7.88
2017-10-31T05:26:13.305Z,7.76
2017-10-31T05:26:53.888Z,7.79
2017-10-31T05:27:34.521Z,7.82
2017-10-31T05:28:15.070Z,7.77
2017-10-31T05:28:55.719Z,7.79
2017-10-31T05:29:36.461Z,7.8
2017-10-31T05:30:17.061Z,7.82
2017-10-31T05:30:57.656Z,7.8
2017-10-31T05:31:38.231Z,7.83
2017-10-31T05:32:18.800Z,7.8
2017-10-31T05:32:59.372Z,7.88
2017-10-31T05:33:39.977Z,7.91
2017-10-31T05:34:20.566Z,7.87
2017-10-31T05:35:01.135Z,7.77
2017-10-31T05:35:41.743Z,7.87
2017-10-31T05:36:22.333Z,7.88
2017-10-31T05:37:02.903Z,7.87
2017-10-31T05:37:43.495Z,7.88
2017-10-31T05:38:24.108Z,7.88
2017-10-31T05:39:04.677Z,7.83
2017-10-31T05:39:45.270Z,7.88
2017-10-31T05:40:25.878Z,7.85
2017-10-31T05:41:06.468Z,7.85
2017-10-31T05:41:47.131Z,7.9
2017-10-31T05:42:27.719Z,7.98
2017-10-31T05:43:08.300Z,7.87
2017-10-31T05:43:48.907Z,7.87
2017-10-31T05:44:29.545Z,7.93
2017-10-31T05:45:10.092Z,7.9
2017-10-31T05:45:50.688Z,7.88
2017-10-31T05:46:31.258Z,7.93
2017-10-31T05:47:11.827Z,7.95
2017-10-31T05:47:52.436Z,8
2017-10-31T05:48:33.001Z,7.93
2017-10-31T05:49:13.584Z,7.98
2017-10-31T05:49:54.187Z,7.93
2017-10-31T05:50:34.776Z,7.98
2017-10-31T05:51:15.346Z,7.9
2017-10-31T05:51:56.011Z,7.93
2017-10-31T05:52:36.647Z,8
2017-10-31T05:53:17.189Z,7.98
2017-10-31T05:53:57.747Z,7.93
2017-10-31T05:54:38.499Z,7.94
2017-10-31T05:55:19.066Z,8
2017-10-31T05:55:59.648Z,8.08
2017-10-31T05:56:40.240Z,7.95
2017-10-31T05:57:20.810Z,7.94
2017-10-31T05:58:01.400Z,8.01
2017-10-31T05:58:42.098Z,8.06
2017-10-31T05:59:22.725Z,8.06
2017-10-31T06:00:03.333Z,8.05
2017-10-31T06:00:43.962Z,8.01
2017-10-31T06:01:24.538Z,8.1
2017-10-31T06:02:05.116Z,8.01
2017-10-31T06:02:45.741Z,8.06
2017-10-31T06:03:26.288Z,8.01
2017-10-31T06:04:06.855Z,8.06
2017-10-31T06:04:47.503Z,8.05
2017-10-31T06:05:28.119Z,8.03
2017-10-31T06:06:08.706Z,8.09
2017-10-31T06:06:49.350Z,8.06
2017-10-31T06:07:29.922Z,8.05
2017-10-31T06:08:10.530Z,8.08
2017-10-31T06:08:51.107Z,8.08
2017-10-31T06:09:31.706Z,8.09
2017-10-31T06:10:12.309Z,8.05
2017-10-31T06:10:52.914Z,8.06
2017-10-31T06:11:33.522Z,8.12
2017-10-31T06:12:14.106Z,8.13
2017-10-31T06:12:54.730Z,8.13
2017-10-31T06:13:35.314Z,8.15
2017-10-31T06:14:15.886Z,8.08
2017-10-31T06:14:56.537Z,8.13
2017-10-31T06:15:37.117Z,8.12
2017-10-31T06:16:17.703Z,8.13
2017-10-31T06:16:58.263Z,8.13
2017-10-31T06:17:38.889Z,8.18
2017-10-31T06:18:19.469Z,8.16
2017-10-31T06:19:00.077Z,8.13
2017-10-31T06:19:40.702Z,8.15
2017-10-31T06:20:21.326Z,8.1
2017-10-31T06:21:01.962Z,8.19
2017-10-31T06:21:42.528Z,8.2
2017-10-31T06:22:23.186Z,8.18
2017-10-31T06:23:03.833Z,8.13
2017-10-31T06:23:44.410Z,8.13
2017-10-31T06:24:24.974Z,8.15
2017-10-31T06:25:05.590Z,8.15
2017-10-31T06:25:46.160Z,8.1
2017-10-31T06:26:26.751Z,8.13
2017-10-31T06:27:07.326Z,8.2
2017-10-31T06:27:47.911Z,8.13
2017-10-31T06:28:28.502Z,8.18
2017-10-31T06:29:09.094Z,8.19
2017-10-31T06:29:49.713Z,8.24
2017-10-31T06:30:30.278Z,8.2
2017-10-31T06:31:10.859Z,8.24
2017-10-31T06:31:51.442Z,8.26
2017-10-31T06:32:32.012Z,8.23
2017-10-31T06:33:12.630Z,8.26
2017-10-31T06:33:53.290Z,8.18
2017-10-31T06:34:33.880Z,8.18
2017-10-31T06:35:14.463Z,8.24
2017-10-31T06:35:55.044Z,8.24
2017-10-31T06:36:35.630Z,8.19
2017-10-31T06:37:16.203Z,8.19
2017-10-31T06:37:56.798Z,8.28
2017-10-31T06:38:37.416Z,8.23
2017-10-31T06:39:18.010Z,8.18
2017-10-31T06:39:58.645Z,8.19
2017-10-31T06:40:39.217Z,8.2
2017-10-31T06:41:19.799Z,8.23
2017-10-31T06:42:00.475Z,8.23
2017-10-31T06:42:41.029Z,8.23
2017-10-31T06:43:21.619Z,8.2
2017-10-31T06:44:02.219Z,8.24
2017-10-31T06:44:42.783Z,8.23
2017-10-31T06:45:23.406Z,8.19
2017-10-31T06:46:04.019Z,8.3
2017-10-31T06:46:44.611Z,8.24
2017-10-31T06:47:25.229Z,8.24
2017-10-31T06:48:05.857Z,8.24
2017-10-31T06:48:46.467Z,8.23
2017-10-31T06:49:27.055Z,8.28
2017-10-31T06:50:07.667Z,8.24
2017-10-31T06:50:48.296Z,8.28
2017-10-31T06:51:28.893Z,8.31
2017-10-31T06:52:09.469Z,8.31
2017-10-31T06:52:50.095Z,8.31
2017-10-31T06:53:30.713Z,8.38
2017-10-31T06:54:11.324Z,8.28
2017-10-31T06:54:51.902Z,8.38
2017-10-31T06:55:32.493Z,8.33
2017-10-31T06:56:13.103Z,8.36
2017-10-31T06:56:53.669Z,8.41
2017-10-31T06:57:34.279Z,8.42
2017-10-31T06:58:14.870Z,8.34
2017-10-31T06:58:55.464Z,8.42
2017-10-31T06:59:36.038Z,8.38
2017-10-31T07:00:16.647Z,8.45
2017-10-31T07:00:57.401Z,8.28
2017-10-31T07:01:38.019Z,8.38
2017-10-31T07:02:18.590Z,8.37
2017-10-31T07:02:59.208Z,8.41
2017-10-31T07:03:39.860Z,8.36
2017-10-31T07:04:20.479Z,8.36
2017-10-31T07:05:01.074Z,8.37
2017-10-31T07:05:41.731Z,8.45
2017-10-31T07:06:22.307Z,8.48
2017-10-31T07:07:02.895Z,8.36
2017-10-31T07:07:43.471Z,8.37
2017-10-31T07:08:24.078Z,8.36
2017-10-31T07:09:04.649Z,8.42
2017-10-31T07:09:45.234Z,8.46
2017-10-31T07:10:25.863Z,8.42
2017-10-31T07:11:06.450Z,8.44
2017-10-31T07:11:47.067Z,8.36
2017-10-31T07:12:27.643Z,8.41
2017-10-31T07:13:08.251Z,8.36
2017-10-31T07:13:48.881Z,8.42
2017-10-31T07:14:29.867Z,8.42
2017-10-31T07:15:10.446Z,8.42
2017-10-31T07:15:51.042Z,8.36
2017-10-31T07:16:31.666Z,8.45
2017-10-31T07:17:12.478Z,8.42
2017-10-31T07:17:53.753Z,8.44
2017-10-31T07:18:34.360Z,8.45
2017-10-31T07:19:14.916Z,8.38
2017-10-31T07:19:55.700Z,8.42
2017-10-31T07:20:36.295Z,8.48
2017-10-31T07:21:17.389Z,8.46
2017-10-31T07:21:57.728Z,8.45
2017-10-31T07:22:38.306Z,8.45
2017-10-31T07:23:18.882Z,8.44
2017-10-31T07:23:59.482Z,8.48
2017-10-31T07:24:40.308Z,8.49
2017-10-31T07:25:21.002Z,8.46
2017-10-31T07:26:01.836Z,8.55
2017-10-31T07:26:42.677Z,8.52
2017-10-31T07:27:24.961Z,8.52
2017-10-31T07:28:05.627Z,8.55
2017-10-31T07:28:47.140Z,8.52
2017-10-31T07:29:27.810Z,8.52
2017-10-31T07:30:08.293Z,8.45
2017-10-31T07:30:48.892Z,8.51
2017-10-31T07:31:29.490Z,8.49
2017-10-31T07:32:10.346Z,8.49
2017-10-31T07:32:50.919Z,8.51
2017-10-31T07:33:31.502Z,8.38
2017-10-31T07:34:12.098Z,8.53
2017-10-31T07:34:53.023Z,8.41
2017-10-31T07:35:33.662Z,8.49
2017-10-31T07:36:14.338Z,8.38
2017-10-31T07:36:55.071Z,8.51
2017-10-31T07:37:35.690Z,8.49
2017-10-31T07:38:16.910Z,8.38
2017-10-31T07:38:57.865Z,8.36
2017-10-31T07:39:39.061Z,8.45
2017-10-31T07:40:19.222Z,8.52
2017-10-31T07:41:00.091Z,8.52
2017-10-31T07:41:40.710Z,8.58
2017-10-31T07:42:21.407Z,8.49
2017-10-31T07:43:02.025Z,8.56
2017-10-31T07:43:42.786Z,8.53
2017-10-31T07:44:23.500Z,8.51
2017-10-31T07:45:04.143Z,8.49
2017-10-31T07:45:44.794Z,8.53
2017-10-31T07:46:26.190Z,8.49
2017-10-31T07:47:06.667Z,8.52
2017-10-31T07:47:47.170Z,8.55
2017-10-31T07:48:27.973Z,8.52
2017-10-31T07:49:08.707Z,8.51
2017-10-31T07:49:49.329Z,8.51
2017-10-31T07:50:30.665Z,8.64
2017-10-31T07:51:11.898Z,8.56
2017-10-31T07:51:52.547Z,8.53
2017-10-31T07:52:33.111Z,8.61
2017-10-31T07:53:13.711Z,8.6
2017-10-31T07:53:54.320Z,8.61
2017-10-31T07:54:34.989Z,8.6
2017-10-31T07:55:15.733Z,8.61
2017-10-31T07:55:56.535Z,8.6
2017-10-31T07:56:36.945Z,8.64
2017-10-31T07:57:17.560Z,8.61
2017-10-31T07:57:58.242Z,8.63
2017-10-31T07:58:38.805Z,8.67
2017-10-31T07:59:19.419Z,8.56
2017-10-31T08:00:00.005Z,8.63
2017-10-31T08:00:40.656Z,8.61
2017-10-31T08:01:21.385Z,8.64
2017-10-31T08:02:02.091Z,8.61
2017-10-31T08:02:42.785Z,8.64
2017-10-31T08:03:23.463Z,8.64
2017-10-31T08:04:04.169Z,8.61
2017-10-31T08:04:44.757Z,8.64
2017-10-31T08:05:25.445Z,8.67
2017-10-31T08:06:06.220Z,8.63
2017-10-31T08:06:46.740Z,8.64
2017-10-31T08:07:27.548Z,8.67
2017-10-31T08:08:08.217Z,8.66
2017-10-31T08:08:48.863Z,8.74
2017-10-31T08:09:29.607Z,8.73
2017-10-31T08:10:10.279Z,8.66
2017-10-31T08:10:50.883Z,8.67
2017-10-31T08:11:31.524Z,8.73
2017-10-31T08:12:12.207Z,8.66
2017-10-31T08:12:52.895Z,8.64
2017-10-31T08:13:33.520Z,8.66
2017-10-31T08:14:14.137Z,8.69
2017-10-31T08:14:54.748Z,8.66
2017-10-31T08:15:35.343Z,8.66
2017-10-31T08:16:15.976Z,8.66
2017-10-31T08:16:56.587Z,8.69
2017-10-31T08:17:37.218Z,8.63
2017-10-31T08:18:17.836Z,8.63
2017-10-31T08:18:58.469Z,8.61
2017-10-31T08:19:39.098Z,8.66
2017-10-31T08:20:19.724Z,8.69
2017-10-31T08:21:00.349Z,8.7
2017-10-31T08:21:40.957Z,8.7
2017-10-31T08:22:21.550Z,8.74
2017-10-31T08:23:02.150Z,8.74
2017-10-31T08:23:42.778Z,8.74
2017-10-31T08:24:23.314Z,8.74
2017-10-31T08:25:03.899Z,8.71
2017-10-31T08:25:44.490Z,8.7
2017-10-31T08:26:25.056Z,8.71
2017-10-31T08:27:05.643Z,8.76
2017-10-31T08:27:46.219Z,8.76
2017-10-31T08:28:26.845Z,8.78
2017-10-31T08:29:07.454Z,8.78
2017-10-31T08:29:48.060Z,8.74
2017-10-31T08:30:28.664Z,8.74
2017-10-31T08:31:09.226Z,8.76
2017-10-31T08:31:49.813Z,8.81
2017-10-31T08:32:30.389Z,8.79
2017-10-31T08:33:10.974Z,8.76
2017-10-31T08:33:51.599Z,8.81
2017-10-31T08:34:32.190Z,8.76
2017-10-31T08:35:12.796Z,8.74
2017-10-31T08:35:53.385Z,8.74
2017-10-31T08:36:34.002Z,8.81
2017-10-31T08:37:14.658Z,8.73
2017-10-31T08:37:55.247Z,8.78
2017-10-31T08:38:35.877Z,8.78
2017-10-31T08:39:16.492Z,8.74
2017-10-31T08:39:57.059Z,8.74
2017-10-31T08:40:37.646Z,8.85
2017-10-31T08:41:18.264Z,8.85
2017-10-31T08:41:58.828Z,8.88
2017-10-31T08:42:39.409Z,8.85
2017-10-31T08:43:20.001Z,8.88
2017-10-31T08:44:00.617Z,8.91
2017-10-31T08:44:41.223Z,8.87
2017-10-31T08:45:21.852Z,8.89
2017-10-31T08:46:02.498Z,8.91
2017-10-31T08:46:43.093Z,8.87
2017-10-31T08:47:23.725Z,8.91
2017-10-31T08:48:04.353Z,8.91
2017-10-31T08:48:44.940Z,8.94
2017-10-31T08:49:25.530Z,8.89
2017-10-31T08:50:06.138Z,8.92
2017-10-31T08:50:46.752Z,8.88
2017-10-31T08:51:27.344Z,8.88
2017-10-31T08:52:07.968Z,8.95
2017-10-31T08:52:48.574Z,8.95
2017-10-31T08:53:32.120Z,8.91
2017-10-31T08:54:10.367Z,8.99
2017-10-31T08:54:50.933Z,9.03
2017-10-31T08:55:31.558Z,8.95
2017-10-31T08:56:12.377Z,8.99
2017-10-31T08:56:52.930Z,9.03
2017-10-31T08:57:33.917Z,9.1
2017-10-31T08:58:15.180Z,9.1
2017-10-31T08:58:55.789Z,9.16
2017-10-31T08:59:36.401Z,9.16
2017-10-31T09:00:17.045Z,9.1
2017-10-31T09:00:57.652Z,9.18
2017-10-31T09:01:38.866Z,9.14
2017-10-31T09:02:19.824Z,9.26
2017-10-31T09:03:00.384Z,9.18